Airfield :
LOGIN :

Register | Disclaimer

   EN    FR    IT 

 










Legend :    VFR   Marginal VFR   IFR   Intensive IFR   Very Intensive IFR
Visi :
Ceiling :
>= 8 km
>= 3000ft
5 to 8 km
1000 to 3000 ft
1500m to 5 km
500 to 1000 ft
800 to 1500m
200 to 500 ft
< 800m
< 200 ft
Symbols :   Thunderstorms  Fog  Heavy snow  Heavy precipitations  Wind > 20 kt
SIGMETs :     Misc.  Thunderstorms  Icing  Turbulence  Mountain Waves  Volcanic Ashes







- Airport Elevation : 220 ft
- IATA code : CWL
- Download approach charts


EGFF - Cardiff Rhoose

CURRENT METAR :
  • 100120Z AUTO 29015KT 9999 BKN034 08/05 Q1026

EXPIRED METARs :
  • 100050Z AUTO 29012KT 9999 BKN033 07/05 Q1026
  • 100020Z AUTO 30013KT 9999 NCD 07/05 Q1025
  • 092350Z AUTO 31017KT 9999 FEW041 08/05 Q1025
  • 092320Z AUTO 30012KT 9999 BKN041 08/05 Q1025
  • 092250Z AUTO 29013KT 9999 BKN041 08/06 Q1025

TAF TAF EGFF
Valid from the 10 at 00:00 until the 11 at 00:00 UTC


092303Z 1000/1024 29016KT 9999 SCT030
BECMG 1003/1006 31006KT
PROB30 1019/1024 6000
ATIS : +44 1446 729 319
No reported NOTAMs for that airfield.



MET'MAP, your aeronautical weather chart ! - Copyright ORBIFLY December 2007 - Disclaimer

ORBIFLY MET'MAP TEAM :

Programming & Development : Alexandra Zaïnal
Concept & Development : Baudouin d'Aumeries
Co-Development & Prog : Marc-Olivier Méhu
Technical & hardware support : Manuel Goepfert

Contact : metmap@orbifly.com




SOURCES & CREDITS :

   NOAA